Time;durP1;ratioP1;P1;durP2;ratioP2;P2;SDS_P1;SDS_P2;PMS_P1;PMS_P2;Temp;Humidity;BMP_temperature;BMP_pressure;BME280_temperature;BME280_humidity;BME280_pressure;Samples;Min_cycle;Max_cycle;Signal;HPM_P1;HPM_P2
2021/04/06 00:02:00;;;;;;;7.20;1.40;;;;;;;;;;5109953;28;20066;-66
2021/04/06 00:04:29;;;;;;;10.40;1.73;;;;;;;;;;5110258;28;20027;-65
2021/04/06 00:06:57;;;;;;;4.78;1.58;;;;;;;;;;5109317;28;20073;-65
2021/04/06 00:09:27;;;;;;;12.00;1.33;;;;;;;;;;5109904;28;20035;-65
2021/04/06 00:11:54;;;;;;;7.87;1.63;;;;;;;;;;5110144;28;20114;-65
2021/04/06 00:14:21;;;;;;;11.35;2.22;;;;;;;;;;5091781;28;20379;-65
2021/04/06 00:16:47;;;;;;;10.00;1.60;;;;;;;;;;5109270;28;20036;-65
2021/04/06 00:19:15;;;;;;;9.13;1.50;;;;;;;;;;5095417;28;20097;-65
2021/04/06 00:21:41;;;;;;;7.43;1.67;;;;;;;;;;5089341;28;20063;-65
2021/04/06 00:24:07;;;;;;;8.57;1.50;;;;;;;;;;5102382;28;20071;-65
2021/04/06 00:26:44;;;;;;;7.20;1.60;;;;;;;;;;5109486;28;20072;-65
2021/04/06 00:29:09;;;;;;;7.93;1.93;;;;;;;;;;5098220;28;20024;-65
2021/04/06 00:31:35;;;;;;;3.10;1.10;;;;;;;;;;5088567;28;20082;-65
2021/04/06 00:34:00;;;;;;;5.53;1.50;;;;;;;;;;5089370;28;20020;-65
2021/04/06 00:36:26;;;;;;;6.33;1.53;;;;;;;;;;5088866;28;20675;-65
2021/04/06 00:38:52;;;;;;;5.53;1.30;;;;;;;;;;5088452;28;20056;-65
2021/04/06 00:41:19;;;;;;;9.37;1.47;;;;;;;;;;5089172;28;20024;-65
2021/04/06 00:43:45;;;;;;;11.73;2.17;;;;;;;;;;5089022;28;20032;-65
2021/04/06 00:46:18;;;;;;;10.57;1.80;;;;;;;;;;5088840;28;20085;-65
2021/04/06 00:48:46;;;;;;;5.65;1.10;;;;;;;;;;5088625;28;20024;-65
2021/04/06 00:51:15;;;;;;;7.23;1.67;;;;;;;;;;5088320;28;20089;-65
2021/04/06 00:54:00;;;;;;;5.77;1.47;;;;;;;;;;5088794;28;20423;-65
2021/04/06 00:56:32;;;;;;;8.15;1.75;;;;;;;;;;5088897;28;20043;-65
2021/04/06 00:59:02;;;;;;;16.50;1.70;;;;;;;;;;5088732;28;20040;-65
2021/04/06 01:01:29;;;;;;;8.27;1.40;;;;;;;;;;5088103;28;20058;-65
2021/04/06 01:03:56;;;;;;;8.80;1.37;;;;;;;;;;5088712;28;20047;-65
2021/04/06 01:06:21;;;;;;;7.10;1.90;;;;;;;;;;5088590;28;20043;-65
2021/04/06 01:08:47;;;;;;;13.00;1.30;;;;;;;;;;5087700;28;20387;-65
2021/04/06 01:11:12;;;;;;;12.07;2.65;;;;;;;;;;5087729;28;20051;-65
2021/04/06 01:13:37;;;;;;;12.07;1.80;;;;;;;;;;5088342;28;20024;-65
2021/04/06 01:16:03;;;;;;;11.57;1.57;;;;;;;;;;5088286;28;20039;-65
2021/04/06 01:18:29;;;;;;;5.43;1.53;;;;;;;;;;5088246;28;20032;-65
2021/04/06 01:20:55;;;;;;;8.87;2.33;;;;;;;;;;5088342;28;20406;-65
2021/04/06 01:23:20;;;;;;;8.93;1.77;;;;;;;;;;5093560;28;20032;-65
2021/04/06 01:26:05;;;;;;;12.10;1.50;;;;;;;;;;5108579;28;20050;-65
2021/04/06 01:28:31;;;;;;;6.17;1.50;;;;;;;;;;5108355;28;20035;-65
2021/04/06 01:30:58;;;;;;;6.80;1.33;;;;;;;;;;5108525;28;20049;-65
2021/04/06 01:33:24;;;;;;;13.53;1.83;;;;;;;;;;5090886;28;20016;-65
2021/04/06 01:35:54;;;;;;;10.20;1.83;;;;;;;;;;5086962;28;20110;-65
2021/04/06 01:38:21;;;;;;;5.53;1.30;;;;;;;;;;5086945;28;20111;-65
2021/04/06 01:40:47;;;;;;;11.50;1.87;;;;;;;;;;5088033;28;20035;-65
2021/04/06 01:43:14;;;;;;;2.93;0.70;;;;;;;;;;5087853;28;20020;-66
2021/04/06 01:45:48;;;;;;;9.10;1.23;;;;;;;;;;5087778;28;20075;-65
2021/04/06 01:48:17;;;;;;;14.73;2.67;;;;;;;;;;5088352;28;20432;-65
2021/04/06 01:50:47;;;;;;;6.30;1.63;;;;;;;;;;5087578;28;20040;-65
2021/04/06 01:53:12;;;;;;;15.27;1.43;;;;;;;;;;5087547;28;20016;-66
2021/04/06 01:55:39;;;;;;;5.10;1.40;;;;;;;;;;5087457;28;20415;-65
2021/04/06 01:58:06;;;;;;;17.17;1.70;;;;;;;;;;5066500;28;20106;-65
2021/04/06 02:00:49;;;;;;;12.40;1.37;;;;;;;;;;5083912;28;20020;-65
2021/04/06 02:03:16;;;;;;;7.33;1.60;;;;;;;;;;5087768;28;20510;-65
2021/04/06 02:05:43;;;;;;;7.80;1.20;;;;;;;;;;5087482;28;20044;-65
2021/04/06 02:08:12;;;;;;;8.77;1.50;;;;;;;;;;5100856;28;20076;-65
2021/04/06 02:10:38;;;;;;;11.53;1.77;;;;;;;;;;5107561;28;20520;-65
2021/04/06 02:13:07;;;;;;;17.13;1.83;;;;;;;;;;5108140;28;20039;-66
2021/04/06 02:15:33;;;;;;;3.30;0.97;;;;;;;;;;5107361;28;20034;-65
2021/04/06 02:17:58;;;;;;;10.97;1.50;;;;;;;;;;5108404;28;20053;-65
2021/04/06 02:20:25;;;;;;;8.73;2.03;;;;;;;;;;5107804;28;20498;-65
2021/04/06 02:22:57;;;;;;;13.50;1.77;;;;;;;;;;5107392;28;20429;-65
2021/04/06 02:25:22;;;;;;;6.70;1.13;;;;;;;;;;5107722;28;20032;-65
2021/04/06 02:27:48;;;;;;;9.33;1.07;;;;;;;;;;5107907;28;20032;-65
2021/04/06 02:30:13;;;;;;;12.73;1.33;;;;;;;;;;5107172;28;20487;-65
2021/04/06 02:32:38;;;;;;;14.60;1.23;;;;;;;;;;5108187;28;20110;-65
2021/04/06 02:35:08;;;;;;;10.87;1.43;;;;;;;;;;5108181;28;20734;-65
2021/04/06 02:37:37;;;;;;;13.50;1.73;;;;;;;;;;5107247;28;20061;-65
2021/04/06 02:40:07;;;;;;;3.93;1.00;;;;;;;;;;5107971;28;20128;-65
2021/04/06 02:42:36;;;;;;;17.07;2.03;;;;;;;;;;5107603;28;20081;-65
2021/04/06 02:45:24;;;;;;;10.50;1.70;;;;;;;;;;5107508;28;20031;-66
2021/04/06 02:47:53;;;;;;;13.13;1.83;;;;;;;;;;5107390;28;20635;-65
2021/04/06 02:50:22;;;;;;;12.07;1.87;;;;;;;;;;5110353;28;20035;-65
2021/04/06 02:52:48;;;;;;;7.93;1.33;;;;;;;;;;5111211;28;20027;-65
2021/04/06 02:55:14;;;;;;;4.83;1.23;;;;;;;;;;5111775;28;20023;-65
2021/04/06 02:57:42;;;;;;;9.23;1.20;;;;;;;;;;5110868;28;20084;-65
2021/04/06 03:00:08;;;;;;;4.13;1.40;;;;;;;;;;5110975;28;20032;-65
2021/04/06 03:02:40;;;;;;;13.02;1.38;;;;;;;;;;5111050;28;20088;-65
2021/04/06 03:05:05;;;;;;;4.50;1.13;;;;;;;;;;5111041;28;20656;-65
2021/04/06 03:07:30;;;;;;;15.10;1.83;;;;;;;;;;5111110;28;20106;-65
2021/04/06 03:09:59;;;;;;;7.97;1.60;;;;;;;;;;5111157;28;20039;-65
2021/04/06 03:12:29;;;;;;;8.80;1.30;;;;;;;;;;5110847;28;20490;-65
2021/04/06 03:14:54;;;;;;;7.07;1.47;;;;;;;;;;5108059;28;20024;-65
2021/04/06 03:17:20;;;;;;;8.17;1.30;;;;;;;;;;5070452;28;20024;-65
2021/04/06 03:19:45;;;;;;;18.80;2.13;;;;;;;;;;5070078;28;20578;-65
2021/04/06 03:22:11;;;;;;;11.13;1.60;;;;;;;;;;5069882;28;20468;-65
2021/04/06 03:24:37;;;;;;;6.73;1.30;;;;;;;;;;5104892;28;20157;-65
2021/04/06 03:27:03;;;;;;;20.73;2.17;;;;;;;;;;5079872;28;20152;-65
2021/04/06 03:29:29;;;;;;;10.13;1.73;;;;;;;;;;5069671;28;20125;-65
2021/04/06 03:31:54;;;;;;;15.17;2.07;;;;;;;;;;5069910;28;20040;-65
2021/04/06 03:34:20;;;;;;;6.50;1.60;;;;;;;;;;5070416;28;20032;-65
2021/04/06 03:36:46;;;;;;;6.73;1.50;;;;;;;;;;5075744;28;20052;-65
2021/04/06 03:39:11;;;;;;;9.27;1.23;;;;;;;;;;5069818;28;20378;-65
2021/04/06 03:41:36;;;;;;;13.80;2.27;;;;;;;;;;5069494;28;20040;-65
2021/04/06 03:44:03;;;;;;;10.23;1.70;;;;;;;;;;5069396;28;20021;-65
2021/04/06 03:46:28;;;;;;;12.67;1.77;;;;;;;;;;5069923;28;20028;-65
2021/04/06 03:49:10;;;;;;;16.30;1.70;;;;;;;;;;5070141;28;20692;-65
2021/04/06 03:51:36;;;;;;;7.40;1.13;;;;;;;;;;5069224;28;20039;-65
2021/04/06 03:54:02;;;;;;;11.87;1.20;;;;;;;;;;5069657;28;20040;-65
2021/04/06 03:56:30;;;;;;;11.97;1.40;;;;;;;;;;5069553;28;20376;-65
2021/04/06 03:59:00;;;;;;;10.43;1.93;;;;;;;;;;5069465;28;20240;-65
2021/04/06 04:01:26;;;;;;;9.97;1.20;;;;;;;;;;5068843;28;20036;-65
2021/04/06 04:03:55;;;;;;;15.80;1.87;;;;;;;;;;5069629;28;20752;-65
2021/04/06 04:06:24;;;;;;;9.77;1.50;;;;;;;;;;5069225;28;20041;-65
2021/04/06 04:08:50;;;;;;;14.73;2.47;;;;;;;;;;5069371;28;20518;-65
2021/04/06 04:11:15;;;;;;;5.77;1.20;;;;;;;;;;5071830;28;20044;-65
2021/04/06 04:13:40;;;;;;;12.93;2.03;;;;;;;;;;5088477;28;20032;-66
2021/04/06 04:16:05;;;;;;;5.27;1.23;;;;;;;;;;5089657;28;20047;-65
2021/04/06 04:18:31;;;;;;;7.30;1.10;;;;;;;;;;5089375;28;20016;-65
2021/04/06 04:20:56;;;;;;;14.50;1.77;;;;;;;;;;5088983;28;20028;-65
2021/04/06 04:23:21;;;;;;;14.63;1.80;;;;;;;;;;5088666;28;20051;-65
2021/04/06 04:25:46;;;;;;;4.97;0.90;;;;;;;;;;5089311;28;20127;-65
2021/04/06 04:28:12;;;;;;;14.13;1.27;;;;;;;;;;5089562;28;20036;-65
2021/04/06 04:30:38;;;;;;;9.23;1.20;;;;;;;;;;5089064;28;20442;-65
2021/04/06 04:33:05;;;;;;;11.57;1.40;;;;;;;;;;5089242;28;20024;-65
2021/04/06 04:35:30;;;;;;;9.80;1.50;;;;;;;;;;5088538;28;20028;-65
2021/04/06 04:37:55;;;;;;;13.97;1.33;;;;;;;;;;5088982;28;20519;-65
2021/04/06 04:40:21;;;;;;;9.50;1.40;;;;;;;;;;5070374;28;20528;-65
2021/04/06 04:42:48;;;;;;;12.53;1.20;;;;;;;;;;5088344;28;20499;-65
2021/04/06 04:45:14;;;;;;;12.53;1.63;;;;;;;;;;5088004;28;20047;-65
2021/04/06 04:47:39;;;;;;;13.38;2.08;;;;;;;;;;5089056;28;20016;-66
2021/04/06 04:50:04;;;;;;;17.63;1.70;;;;;;;;;;5089076;28;20652;-65
2021/04/06 04:52:30;;;;;;;5.33;0.97;;;;;;;;;;5088671;28;20115;-65
2021/04/06 04:54:55;;;;;;;13.88;2.53;;;;;;;;;;5087960;28;20227;-65
2021/04/06 04:57:20;;;;;;;7.43;1.20;;;;;;;;;;5088958;28;20036;-66
2021/04/06 04:59:46;;;;;;;12.53;1.43;;;;;;;;;;5088678;28;20036;-65
2021/04/06 05:02:11;;;;;;;12.37;1.80;;;;;;;;;;5088993;28;20452;-65
2021/04/06 05:04:36;;;;;;;12.97;1.40;;;;;;;;;;5088458;28;20032;-65
2021/04/06 05:07:01;;;;;;;3.80;0.90;;;;;;;;;;5087683;28;20816;-65
2021/04/06 05:09:27;;;;;;;14.20;1.80;;;;;;;;;;5088858;28;20020;-64
2021/04/06 05:11:52;;;;;;;12.52;1.63;;;;;;;;;;5087966;28;20396;-65
2021/04/06 05:14:17;;;;;;;12.18;1.50;;;;;;;;;;5088369;28;20028;-65
2021/04/06 05:16:42;;;;;;;13.37;1.73;;;;;;;;;;5087390;28;20023;-65
2021/04/06 05:19:08;;;;;;;11.40;1.10;;;;;;;;;;5088603;28;20031;-65
2021/04/06 05:21:33;;;;;;;11.65;2.17;;;;;;;;;;5088067;28;20431;-65
2021/04/06 05:23:58;;;;;;;5.77;1.13;;;;;;;;;;5070231;28;20103;-65
2021/04/06 05:26:23;;;;;;;13.77;1.50;;;;;;;;;;5087862;28;20043;-65
2021/04/06 05:28:49;;;;;;;9.87;1.37;;;;;;;;;;5087823;28;20081;-64
2021/04/06 05:31:14;;;;;;;13.47;1.73;;;;;;;;;;5088277;28;20030;-65
2021/04/06 05:33:39;;;;;;;7.60;1.33;;;;;;;;;;5088069;28;20472;-65
2021/04/06 05:36:05;;;;;;;11.87;1.60;;;;;;;;;;5087891;28;20040;-65
2021/04/06 05:38:30;;;;;;;16.67;2.00;;;;;;;;;;5087935;28;20097;-65
2021/04/06 05:40:55;;;;;;;13.00;2.17;;;;;;;;;;5088009;28;20039;-64
2021/04/06 05:43:21;;;;;;;7.87;1.37;;;;;;;;;;5088225;28;20036;-65
2021/04/06 05:45:49;;;;;;;12.57;1.50;;;;;;;;;;5087520;28;20035;-65
2021/04/06 05:48:15;;;;;;;7.17;1.20;;;;;;;;;;5087832;28;20035;-66
2021/04/06 05:50:44;;;;;;;11.57;1.67;;;;;;;;;;5087742;28;20047;-65
2021/04/06 05:53:10;;;;;;;11.60;1.20;;;;;;;;;;5088143;28;20024;-65
2021/04/06 05:55:35;;;;;;;11.47;1.23;;;;;;;;;;5087616;28;20034;-65
2021/04/06 05:58:01;;;;;;;10.67;2.47;;;;;;;;;;5087434;28;20036;-65
2021/04/06 06:00:26;;;;;;;20.00;2.13;;;;;;;;;;5087555;28;20036;-65
2021/04/06 06:02:51;;;;;;;8.63;1.23;;;;;;;;;;5090247;28;20478;-66
2021/04/06 06:05:17;;;;;;;10.60;1.40;;;;;;;;;;5107996;28;20049;-65
2021/04/06 06:07:43;;;;;;;11.40;1.27;;;;;;;;;;5107829;28;20031;-65
2021/04/06 06:10:37;;;;;;;13.27;1.83;;;;;;;;;;5107783;28;20053;-65
2021/04/06 06:13:16;;;;;;;12.00;1.37;;;;;;;;;;5085880;28;20134;-65
2021/04/06 06:15:42;;;;;;;13.35;1.92;;;;;;;;;;5067325;28;20044;-65
2021/04/06 06:18:07;;;;;;;10.68;1.77;;;;;;;;;;5049248;28;20044;-65
2021/04/06 06:20:33;;;;;;;10.13;2.65;;;;;;;;;;5066641;28;20012;-66
2021/04/06 06:23:18;;;;;;;8.57;1.30;;;;;;;;;;5075670;28;20574;-66
2021/04/06 06:26:03;;;;;;;14.25;2.13;;;;;;;;;;5112116;28;20044;-66
2021/04/06 06:28:29;;;;;;;10.07;1.33;;;;;;;;;;5077912;28;20055;-66
2021/04/06 06:30:54;;;;;;;9.55;2.05;;;;;;;;;;5078143;28;20121;-66
2021/04/06 06:33:23;;;;;;;11.02;2.00;;;;;;;;;;5082866;28;20016;-66
2021/04/06 06:35:55;;;;;;;11.20;2.72;;;;;;;;;;5091208;28;20024;-66
2021/04/06 06:38:22;;;;;;;8.60;2.00;;;;;;;;;;5091075;28;20036;-67
2021/04/06 06:40:48;;;;;;;4.22;1.70;;;;;;;;;;5091034;28;20389;-66
2021/04/06 06:43:14;;;;;;;4.88;1.65;;;;;;;;;;5090997;28;20099;-67
2021/04/06 06:45:40;;;;;;;5.10;2.08;;;;;;;;;;5101056;28;20063;-67
2021/04/06 06:48:06;;;;;;;23.17;7.25;;;;;;;;;;5111582;28;20032;-66
2021/04/06 06:50:44;;;;;;;28.48;11.35;;;;;;;;;;5115920;28;20035;-67
2021/04/06 06:53:09;;;;;;;25.35;7.32;;;;;;;;;;5116393;28;20047;-67
2021/04/06 06:55:37;;;;;;;12.45;5.10;;;;;;;;;;5091977;28;20447;-67
2021/04/06 06:58:03;;;;;;;7.65;3.30;;;;;;;;;;5084420;28;20024;-67
2021/04/06 07:00:28;;;;;;;19.77;5.57;;;;;;;;;;5075505;28;20485;-67
2021/04/06 07:02:53;;;;;;;20.60;6.35;;;;;;;;;;5075421;28;20024;-67
2021/04/06 07:05:23;;;;;;;64.10;24.40;;;;;;;;;;5075331;28;20387;-67
2021/04/06 07:08:04;;;;;;;48.90;20.13;;;;;;;;;;5074970;28;20520;-67
2021/04/06 07:10:34;;;;;;;8.50;2.70;;;;;;;;;;5074757;28;20023;-67
2021/04/06 07:13:04;;;;;;;13.02;3.80;;;;;;;;;;5075385;28;20411;-67
2021/04/06 07:15:29;;;;;;;8.38;2.20;;;;;;;;;;5075019;28;20032;-67
2021/04/06 07:17:58;;;;;;;6.07;2.10;;;;;;;;;;5057606;28;20032;-67
2021/04/06 07:20:23;;;;;;;7.85;1.60;;;;;;;;;;5075167;28;20032;-67
2021/04/06 07:22:51;;;;;;;6.15;1.60;;;;;;;;;;5079500;28;20047;-67
2021/04/06 07:25:16;;;;;;;8.60;1.58;;;;;;;;;;5115776;28;20031;-67
2021/04/06 07:27:42;;;;;;;10.27;2.35;;;;;;;;;;5115274;28;20433;-68
2021/04/06 07:30:09;;;;;;;3.97;1.48;;;;;;;;;;5085665;28;20031;-67
2021/04/06 07:32:35;;;;;;;3.75;1.67;;;;;;;;;;5094062;28;20024;-68
2021/04/06 07:35:00;;;;;;;7.05;2.17;;;;;;;;;;5093068;28;20043;-68
2021/04/06 07:37:26;;;;;;;7.50;1.50;;;;;;;;;;5093893;28;20024;-67
2021/04/06 07:39:54;;;;;;;6.65;1.42;;;;;;;;;;5094050;28;20164;-68
2021/04/06 07:42:20;;;;;;;3.67;1.15;;;;;;;;;;5094239;28;20040;-68
2021/04/06 07:44:45;;;;;;;5.82;1.42;;;;;;;;;;5093350;28;20023;-68
2021/04/06 07:47:10;;;;;;;4.78;1.20;;;;;;;;;;5093933;28;20062;-68
2021/04/06 07:49:39;;;;;;;6.80;1.30;;;;;;;;;;5094066;28;20090;-69
2021/04/06 07:52:18;;;;;;;3.55;1.15;;;;;;;;;;5093096;28;20028;-66
2021/04/06 07:54:44;;;;;;;2.70;1.02;;;;;;;;;;5094115;28;20028;-66
2021/04/06 07:57:10;;;;;;;6.03;1.40;;;;;;;;;;5094562;28;20032;-66
2021/04/06 07:59:35;;;;;;;5.13;1.40;;;;;;;;;;5089536;28;20166;-66
2021/04/06 08:02:03;;;;;;;2.30;0.85;;;;;;;;;;5089822;28;20028;-66
2021/04/06 08:04:37;;;;;;;3.00;1.15;;;;;;;;;;5091330;28;20047;-66
2021/04/06 08:07:22;;;;;;;4.25;1.00;;;;;;;;;;5091480;28;20064;-66
2021/04/06 08:09:50;;;;;;;2.80;1.03;;;;;;;;;;5093031;28;20131;-66
2021/04/06 08:12:17;;;;;;;6.45;1.10;;;;;;;;;;5111122;28;20357;-66
2021/04/06 08:14:43;;;;;;;5.45;1.45;;;;;;;;;;5112511;28;20035;-66
2021/04/06 08:17:23;;;;;;;3.38;1.38;;;;;;;;;;5111409;28;20516;-66
2021/04/06 08:19:49;;;;;;;5.28;1.30;;;;;;;;;;5111306;28;20088;-66
2021/04/06 08:22:27;;;;;;;2.80;0.98;;;;;;;;;;5111644;28;20040;-66
2021/04/06 08:24:53;;;;;;;4.75;1.20;;;;;;;;;;5111631;28;20084;-66
2021/04/06 08:27:35;;;;;;;4.18;1.15;;;;;;;;;;5074790;28;20028;-66
2021/04/06 08:30:18;;;;;;;9.82;1.00;;;;;;;;;;5090478;28;20077;-66
2021/04/06 08:33:03;;;;;;;3.13;1.17;;;;;;;;;;5095305;28;20028;-66
2021/04/06 08:35:29;;;;;;;;;;;;;;;;;;5111533;28;20034;-66
2021/04/06 08:37:54;;;;;;;4.60;1.40;;;;;;;;;;5101564;28;19907;-66
2021/04/06 08:40:39;;;;;;;5.43;1.20;;;;;;;;;;5101086;28;20044;-66
2021/04/06 08:43:04;;;;;;;4.05;1.17;;;;;;;;;;5106519;28;20072;-66
2021/04/06 08:45:32;;;;;;;4.32;1.30;;;;;;;;;;5080691;28;20480;-66
2021/04/06 08:47:57;;;;;;;3.88;1.10;;;;;;;;;;5082371;28;20024;-66
2021/04/06 08:50:33;;;;;;;4.80;1.17;;;;;;;;;;5094749;28;20034;-66
2021/04/06 08:52:58;;;;;;;3.42;1.10;;;;;;;;;;5086400;28;20047;-66
2021/04/06 08:55:24;;;;;;;4.60;1.02;;;;;;;;;;5085910;28;20036;-66
2021/04/06 08:57:55;;;;;;;8.73;1.10;;;;;;;;;;5089460;28;20550;-66
2021/04/06 09:00:21;;;;;;;5.82;1.20;;;;;;;;;;5103389;28;20023;-66
2021/04/06 09:02:59;;;;;;;2.08;1.20;;;;;;;;;;5105554;28;20054;-66
2021/04/06 09:05:27;;;;;;;5.32;1.10;;;;;;;;;;5106166;28;20484;-66
2021/04/06 09:07:52;;;;;;;6.00;1.25;;;;;;;;;;5084189;28;20032;-66
2021/04/06 09:10:18;;;;;;;6.15;1.17;;;;;;;;;;5084297;28;20408;-66
2021/04/06 09:12:43;;;;;;;2.83;0.88;;;;;;;;;;5079001;28;20423;-66
2021/04/06 09:15:10;;;;;;;6.03;1.40;;;;;;;;;;5084659;28;20137;-66
2021/04/06 09:17:36;;;;;;;5.82;0.88;;;;;;;;;;5085541;28;20020;-66
2021/04/06 09:20:09;;;;;;;3.72;1.00;;;;;;;;;;5092798;28;20024;-66
2021/04/06 09:22:35;;;;;;;2.83;1.00;;;;;;;;;;5080332;28;20055;-66
2021/04/06 09:25:12;;;;;;;3.22;0.90;;;;;;;;;;5076511;28;20452;-66
2021/04/06 09:27:46;;;;;;;1.90;0.60;;;;;;;;;;5068038;28;20097;-66
2021/04/06 09:30:11;;;;;;;5.55;1.15;;;;;;;;;;5099383;28;20039;-66
2021/04/06 09:32:37;;;;;;;4.22;1.00;;;;;;;;;;5096366;28;20028;-66
2021/04/06 09:35:02;;;;;;;8.90;1.40;;;;;;;;;;5082545;28;20101;-65
2021/04/06 09:37:28;;;;;;;5.55;0.90;;;;;;;;;;5086005;28;20056;-65
2021/04/06 09:39:54;;;;;;;4.65;1.30;;;;;;;;;;5076966;28;20113;-66
2021/04/06 09:42:20;;;;;;;3.30;1.00;;;;;;;;;;5079684;28;20050;-66
2021/04/06 09:44:46;;;;;;;5.38;1.30;;;;;;;;;;5079607;28;20064;-66
2021/04/06 09:47:16;;;;;;;3.90;1.00;;;;;;;;;;5080143;28;20050;-66
2021/04/06 09:49:42;;;;;;;3.05;0.80;;;;;;;;;;5097752;28;20039;-66
2021/04/06 09:52:11;;;;;;;4.35;0.75;;;;;;;;;;5109389;28;20039;-66
2021/04/06 09:54:37;;;;;;;3.10;0.90;;;;;;;;;;5109836;28;20080;-66
2021/04/06 09:57:09;;;;;;;2.40;0.90;;;;;;;;;;5100623;28;20036;-66
2021/04/06 09:59:34;;;;;;;1.98;0.60;;;;;;;;;;5089637;28;20433;-65
2021/04/06 10:01:59;;;;;;;2.20;0.98;;;;;;;;;;5099164;28;20020;-65
2021/04/06 10:04:31;;;;;;;1.60;0.60;;;;;;;;;;5108971;28;20028;-66
2021/04/06 10:07:04;;;;;;;3.72;1.00;;;;;;;;;;5088128;28;20074;-66
2021/04/06 10:09:32;;;;;;;2.20;0.68;;;;;;;;;;5089659;28;20028;-66
2021/04/06 10:11:58;;;;;;;3.15;1.15;;;;;;;;;;5089020;28;20032;-66
2021/04/06 10:14:23;;;;;;;3.60;0.80;;;;;;;;;;5090096;28;20031;-66
2021/04/06 10:16:56;;;;;;;6.22;1.23;;;;;;;;;;5089182;28;20028;-66
2021/04/06 10:19:23;;;;;;;2.78;0.90;;;;;;;;;;5089972;28;20107;-66
2021/04/06 10:21:58;;;;;;;4.30;1.13;;;;;;;;;;5089527;28;20107;-66
2021/04/06 10:24:23;;;;;;;;;;;;;;;;;;5105719;28;20032;-66
2021/04/06 10:27:02;;;;;;;2.85;0.70;;;;;;;;;;5110110;28;19911;-66
2021/04/06 10:29:31;;;;;;;8.60;2.05;;;;;;;;;;5109689;28;20122;-66
2021/04/06 10:31:59;;;;;;;1.48;0.60;;;;;;;;;;5109570;28;20041;-66
2021/04/06 10:34:24;;;;;;;1.98;0.80;;;;;;;;;;5108252;28;20031;-65
2021/04/06 10:36:54;;;;;;;6.05;0.80;;;;;;;;;;5088160;28;20031;-65
2021/04/06 10:39:29;;;;;;;2.15;0.77;;;;;;;;;;5089444;28;20040;-68
2021/04/06 10:41:54;;;;;;;1.67;0.70;;;;;;;;;;5089736;28;20511;-67
2021/04/06 10:44:19;;;;;;;1.85;0.80;;;;;;;;;;5088198;28;20012;-67
2021/04/06 10:46:44;;;;;;;3.22;0.90;;;;;;;;;;5088897;28;20082;-67
2021/04/06 10:49:10;;;;;;;2.22;0.73;;;;;;;;;;5088564;28;20028;-67
2021/04/06 10:51:35;;;;;;;1.25;0.55;;;;;;;;;;5073028;28;20023;-67
2021/04/06 10:54:07;;;;;;;1.83;0.70;;;;;;;;;;5078278;28;20074;-67
2021/04/06 10:56:39;;;;;;;1.30;0.40;;;;;;;;;;5069583;28;20094;-66
2021/04/06 10:59:05;;;;;;;1.45;0.63;;;;;;;;;;5071067;28;20020;-67
2021/04/06 11:01:49;;;;;;;1.73;0.52;;;;;;;;;;5088114;28;20050;-66
2021/04/06 11:04:16;;;;;;;3.72;0.68;;;;;;;;;;5087306;28;20392;-66
2021/04/06 11:06:43;;;;;;;1.92;0.65;;;;;;;;;;5089170;28;20036;-67
2021/04/06 11:09:15;;;;;;;2.65;0.90;;;;;;;;;;5081469;28;20024;-67
2021/04/06 11:11:42;;;;;;;4.47;0.65;;;;;;;;;;5090145;28;20035;-67
2021/04/06 11:14:09;;;;;;;1.50;0.50;;;;;;;;;;5091297;28;20036;-66
2021/04/06 11:16:36;;;;;;;0.73;0.55;;;;;;;;;;5084806;28;20743;-66
2021/04/06 11:19:09;;;;;;;1.15;0.43;;;;;;;;;;5079291;28;20376;-67
2021/04/06 11:21:36;;;;;;;0.45;0.40;;;;;;;;;;5069744;28;20078;-67
2021/04/06 11:24:01;;;;;;;1.63;0.77;;;;;;;;;;5082198;28;20141;-67
2021/04/06 11:26:27;;;;;;;2.05;0.50;;;;;;;;;;5089422;28;20129;-67
2021/04/06 11:28:52;;;;;;;1.02;0.50;;;;;;;;;;5089728;28;20101;-66
2021/04/06 11:31:18;;;;;;;1.25;0.30;;;;;;;;;;5088597;28;20036;-66
2021/04/06 11:33:43;;;;;;;0.68;0.30;;;;;;;;;;5088797;28;20060;-66
2021/04/06 11:36:09;;;;;;;0.63;0.40;;;;;;;;;;5084105;28;20038;-66
2021/04/06 11:38:34;;;;;;;0.90;0.60;;;;;;;;;;5083013;28;20036;-67
2021/04/06 11:40:59;;;;;;;2.95;0.50;;;;;;;;;;5088687;28;20032;-67
2021/04/06 11:43:25;;;;;;;0.70;0.40;;;;;;;;;;5087696;28;20024;-66
2021/04/06 11:45:50;;;;;;;0.73;0.60;;;;;;;;;;5080927;28;20044;-66
2021/04/06 11:48:15;;;;;;;3.33;0.35;;;;;;;;;;5090507;28;20075;-66
2021/04/06 11:50:41;;;;;;;0.52;0.30;;;;;;;;;;5086675;28;20456;-66
2021/04/06 11:53:06;;;;;;;1.48;0.47;;;;;;;;;;5079995;28;20146;-66
2021/04/06 11:55:32;;;;;;;3.55;0.52;;;;;;;;;;5070726;28;20392;-66
2021/04/06 11:57:57;;;;;;;2.28;0.63;;;;;;;;;;5086522;28;20031;-66
2021/04/06 12:00:22;;;;;;;1.20;0.38;;;;;;;;;;5083414;28;20096;-66
2021/04/06 12:02:48;;;;;;;1.65;0.50;;;;;;;;;;5073508;28;20787;-66
2021/04/06 12:05:13;;;;;;;1.30;0.50;;;;;;;;;;5075636;28;20047;-66
2021/04/06 12:07:38;;;;;;;1.45;0.50;;;;;;;;;;5078851;28;20024;-66
2021/04/06 12:10:05;;;;;;;2.15;0.70;;;;;;;;;;5078233;28;20043;-66
2021/04/06 12:12:30;;;;;;;1.17;0.43;;;;;;;;;;5073220;28;20025;-66
2021/04/06 12:14:55;;;;;;;0.63;0.35;;;;;;;;;;5079038;28;20385;-66
2021/04/06 12:17:21;;;;;;;1.02;0.50;;;;;;;;;;5072848;28;20036;-66
2021/04/06 12:19:46;;;;;;;1.02;0.28;;;;;;;;;;5091873;28;20020;-66
2021/04/06 12:22:11;;;;;;;1.10;0.65;;;;;;;;;;5090962;28;20036;-66
2021/04/06 12:24:37;;;;;;;2.63;0.40;;;;;;;;;;5108291;28;20035;-66
2021/04/06 12:27:02;;;;;;;2.25;0.55;;;;;;;;;;5111351;28;20012;-66
2021/04/06 12:29:27;;;;;;;1.02;0.60;;;;;;;;;;5111704;28;20039;-66
2021/04/06 12:31:53;;;;;;;1.48;0.50;;;;;;;;;;5111684;28;20110;-66
2021/04/06 12:34:18;;;;;;;3.83;0.40;;;;;;;;;;5111630;28;20023;-66
2021/04/06 12:36:43;;;;;;;1.15;0.47;;;;;;;;;;5111368;28;20019;-66
2021/04/06 12:39:09;;;;;;;2.35;0.55;;;;;;;;;;5111288;28;20475;-66
2021/04/06 12:41:34;;;;;;;0.30;0.30;;;;;;;;;;5092554;28;20019;-66
2021/04/06 12:43:59;;;;;;;1.42;0.40;;;;;;;;;;5111517;28;20455;-67
2021/04/06 12:46:24;;;;;;;0.90;0.50;;;;;;;;;;5104466;28;20031;-67
2021/04/06 12:48:50;;;;;;;1.45;0.60;;;;;;;;;;5088362;28;20440;-66
2021/04/06 12:51:15;;;;;;;2.28;0.55;;;;;;;;;;5081048;28;20078;-66
2021/04/06 12:53:41;;;;;;;0.75;0.45;;;;;;;;;;5091072;28;20027;-66
2021/04/06 12:56:06;;;;;;;4.85;0.88;;;;;;;;;;5090080;28;20070;-66
2021/04/06 12:58:32;;;;;;;1.65;0.40;;;;;;;;;;5091426;28;20032;-66
2021/04/06 13:00:57;;;;;;;2.00;0.30;;;;;;;;;;5077969;28;20161;-66
2021/04/06 13:03:23;;;;;;;3.10;0.43;;;;;;;;;;5079321;28;20025;-66
2021/04/06 13:05:48;;;;;;;6.78;0.70;;;;;;;;;;5082916;28;20499;-66
2021/04/06 13:08:14;;;;;;;2.50;0.60;;;;;;;;;;5070117;28;20039;-66
2021/04/06 13:10:40;;;;;;;3.10;0.70;;;;;;;;;;5087346;28;20511;-66
2021/04/06 13:13:06;;;;;;;2.33;0.70;;;;;;;;;;5087809;28;20064;-66
2021/04/06 13:15:31;;;;;;;1.42;0.50;;;;;;;;;;5069068;28;20039;-67
2021/04/06 13:17:57;;;;;;;20.67;1.30;;;;;;;;;;5087561;28;20468;-66
2021/04/06 13:20:22;;;;;;;1.70;0.50;;;;;;;;;;5087765;28;20040;-66
2021/04/06 13:22:47;;;;;;;1.20;0.40;;;;;;;;;;5074976;28;20514;-66
2021/04/06 13:25:13;;;;;;;9.25;0.93;;;;;;;;;;5083033;28;20621;-66
2021/04/06 13:27:39;;;;;;;1.05;0.40;;;;;;;;;;5089967;28;20080;-66
2021/04/06 13:30:06;;;;;;;3.67;0.68;;;;;;;;;;5085572;28;20104;-66
2021/04/06 13:32:31;;;;;;;1.45;0.60;;;;;;;;;;5085086;28;20028;-67
2021/04/06 13:34:56;;;;;;;2.22;1.42;;;;;;;;;;5083076;28;20033;-67
2021/04/06 13:37:22;;;;;;;2.30;0.70;;;;;;;;;;5078990;28;20134;-66
2021/04/06 13:39:47;;;;;;;2.03;0.80;;;;;;;;;;5090752;28;20128;-67
2021/04/06 13:42:12;;;;;;;1.90;0.57;;;;;;;;;;5085534;28;20036;-66
2021/04/06 13:44:39;;;;;;;1.48;0.70;;;;;;;;;;5086247;28;20124;-67
2021/04/06 13:47:04;;;;;;;1.48;0.70;;;;;;;;;;5085979;28;20028;-66
2021/04/06 13:49:29;;;;;;;1.50;1.10;;;;;;;;;;5085820;28;20592;-66
2021/04/06 13:51:55;;;;;;;1.00;0.55;;;;;;;;;;5085565;28;20480;-66
2021/04/06 13:54:20;;;;;;;2.25;0.60;;;;;;;;;;5085787;28;20047;-66
2021/04/06 13:56:45;;;;;;;4.60;1.50;;;;;;;;;;5081920;28;20111;-66
2021/04/06 13:59:11;;;;;;;1.73;0.40;;;;;;;;;;5077650;28;20127;-66
2021/04/06 14:01:36;;;;;;;0.43;0.43;;;;;;;;;;5099289;28;20069;-66
2021/04/06 14:04:02;;;;;;;0.57;0.45;;;;;;;;;;5073166;28;20040;-66
2021/04/06 14:06:27;;;;;;;0.77;0.75;;;;;;;;;;5081974;28;20040;-66
2021/04/06 14:08:53;;;;;;;3.40;0.50;;;;;;;;;;5085789;28;20031;-66
2021/04/06 14:11:18;;;;;;;1.55;0.55;;;;;;;;;;5085872;28;20043;-66
2021/04/06 14:13:43;;;;;;;1.50;0.45;;;;;;;;;;5085443;28;20119;-67
2021/04/06 14:16:08;;;;;;;1.23;0.45;;;;;;;;;;5086810;28;20031;-66
2021/04/06 14:18:34;;;;;;;0.73;0.45;;;;;;;;;;5085289;28;20024;-66
2021/04/06 14:21:00;;;;;;;2.33;0.60;;;;;;;;;;5085053;28;20048;-66
2021/04/06 14:23:28;;;;;;;2.03;1.10;;;;;;;;;;5093337;28;20068;-66
2021/04/06 14:25:54;;;;;;;2.92;0.73;;;;;;;;;;5088283;28;20048;-66
2021/04/06 14:28:21;;;;;;;1.27;0.75;;;;;;;;;;5086105;28;20032;-66
2021/04/06 14:30:47;;;;;;;3.45;0.70;;;;;;;;;;5085627;28;20016;-66
2021/04/06 14:33:16;;;;;;;0.75;0.40;;;;;;;;;;5084032;28;20036;-66
2021/04/06 14:35:41;;;;;;;2.85;0.75;;;;;;;;;;5078249;28;20391;-66
2021/04/06 14:38:06;;;;;;;3.53;0.75;;;;;;;;;;5084608;28;20024;-66
2021/04/06 14:40:32;;;;;;;4.07;0.80;;;;;;;;;;5084202;28;20440;-67
2021/04/06 14:43:06;;;;;;;3.22;0.90;;;;;;;;;;5075078;28;20533;-67